createdAt,value
2022-11-01T00:02:37.081Z,18.80
2022-11-01T00:17:40.031Z,19.30
2022-11-01T00:32:43.441Z,20.00
2022-11-01T00:47:47.885Z,17.00
2022-11-01T01:02:50.798Z,15.00
2022-11-01T01:17:53.789Z,15.90
2022-11-01T01:32:57.003Z,16.10
2022-11-01T01:48:23.674Z,11.40
2022-11-01T02:03:37.882Z,14.50
2022-11-01T02:19:11.336Z,18.90
2022-11-01T02:34:29.803Z,27.40
2022-11-01T02:49:37.454Z,19.70
2022-11-01T03:04:40.641Z,18.50
2022-11-01T03:20:00.901Z,18.20
2022-11-01T03:35:06.038Z,21.80
2022-11-01T03:50:29.335Z,17.00
2022-11-01T04:05:34.131Z,22.90
2022-11-01T04:20:38.154Z,19.70
2022-11-01T04:35:41.430Z,16.10
2022-11-01T04:50:45.746Z,15.40
2022-11-01T05:05:48.811Z,27.00
2022-11-01T05:20:51.949Z,17.40
2022-11-01T05:35:55.197Z,20.70
2022-11-01T05:50:58.377Z,18.50
2022-11-01T06:06:01.438Z,20.40
2022-11-01T06:21:04.657Z,15.80
2022-11-01T06:36:07.996Z,18.40
2022-11-01T06:51:11.041Z,17.00
2022-11-01T07:06:14.797Z,92.00
2022-11-01T07:21:18.691Z,64.40
2022-11-01T07:36:22.344Z,64.80
2022-11-01T07:51:25.856Z,29.80
2022-11-01T08:06:28.934Z,27.50
2022-11-01T08:21:32.297Z,63.70
2022-11-01T08:36:35.485Z,40.90
2022-11-01T08:51:39.737Z,33.90
2022-11-01T09:06:43.486Z,59.80
2022-11-01T09:21:47.188Z,32.10
2022-11-01T09:36:50.289Z,28.50
2022-11-01T09:51:55.099Z,42.50
2022-11-01T10:07:05.286Z,128.60
2022-11-01T10:22:39.978Z,187.60
2022-11-01T10:38:04.353Z,104.50
2022-11-01T10:53:19.882Z,38.40
2022-11-01T11:08:25.165Z,34.40
2022-11-01T11:23:33.305Z,30.20
2022-11-01T11:38:42.180Z,35.40
2022-11-01T12:08:52.205Z,55.30
2022-11-01T12:24:03.715Z,45.60
2022-11-01T12:39:39.302Z,33.20
2022-11-01T12:54:50.884Z,57.70
2022-11-01T13:10:33.780Z,69.00
2022-11-01T13:25:46.740Z,57.40
2022-11-01T13:40:55.431Z,53.00
2022-11-01T14:11:07.715Z,95.80
2022-11-01T14:26:23.735Z,71.20
2022-11-01T14:41:32.719Z,70.90
2022-11-01T14:56:40.858Z,77.10
2022-11-01T15:26:48.680Z,85.10
2022-11-01T15:41:54.770Z,75.20
2022-11-01T15:57:02.805Z,80.20
2022-11-01T16:12:24.329Z,66.10
2022-11-01T16:27:28.906Z,75.50
2022-11-01T16:42:33.420Z,65.80
2022-11-01T16:57:39.761Z,66.70
2022-11-01T17:12:43.312Z,65.90
2022-11-01T17:27:51.327Z,78.50
2022-11-01T17:42:55.371Z,76.00
2022-11-01T17:58:15.635Z,76.00
2022-11-01T18:13:25.678Z,116.40
2022-11-01T18:28:32.959Z,79.90
2022-11-01T18:43:40.533Z,169.30
2022-11-01T18:58:44.374Z,99.30
2022-11-01T19:13:51.321Z,84.80
2022-11-01T19:28:55.883Z,101.10
2022-11-01T19:44:12.243Z,101.00
2022-11-01T19:59:16.075Z,107.00
2022-11-01T20:14:21.040Z,87.30
2022-11-01T20:36:15.947Z,110.50
2022-11-01T20:51:19.254Z,116.50
2022-11-01T21:06:25.149Z,113.90
2022-11-01T21:21:45.370Z,121.60
2022-11-01T21:36:53.763Z,124.20
2022-11-01T21:52:00.718Z,139.20
2022-11-01T22:07:06.411Z,160.20
2022-11-01T22:22:09.782Z,172.10
2022-11-01T22:37:13.396Z,202.00
2022-11-01T22:52:32.459Z,216.60
2022-11-01T23:22:41.629Z,250.80
2022-11-01T23:37:45.264Z,243.00
2022-11-01T23:53:06.388Z,229.60
